createdAt,value
2022-10-26T00:01:25.597Z,7.95
2022-10-26T00:03:57.262Z,7.97
2022-10-26T00:06:28.901Z,8.30
2022-10-26T00:08:59.338Z,7.85
2022-10-26T00:11:27.735Z,8.20
2022-10-26T00:13:56.060Z,7.20
2022-10-26T00:16:28.131Z,7.97
2022-10-26T00:18:56.739Z,7.75
2022-10-26T00:21:25.119Z,7.55
2022-10-26T00:23:56.348Z,8.18
2022-10-26T00:26:26.108Z,7.50
2022-10-26T00:28:55.742Z,7.90
2022-10-26T00:31:24.499Z,7.20
2022-10-26T00:33:54.824Z,7.63
2022-10-26T00:36:23.623Z,8.45
2022-10-26T00:38:53.640Z,7.85
2022-10-26T00:41:26.709Z,8.40
2022-10-26T00:43:55.748Z,8.07
2022-10-26T00:46:27.857Z,7.93
2022-10-26T00:49:02.352Z,7.47
2022-10-26T00:51:33.894Z,7.57
2022-10-26T00:54:05.519Z,7.75
2022-10-26T00:56:36.979Z,8.30
2022-10-26T00:59:09.492Z,6.80
2022-10-26T01:01:42.932Z,7.05
2022-10-26T01:04:12.172Z,7.57
2022-10-26T01:06:41.447Z,7.38
2022-10-26T01:09:10.575Z,7.45
2022-10-26T01:11:40.120Z,7.78
2022-10-26T01:14:10.859Z,7.32
2022-10-26T01:20:01.994Z,6.90
2022-10-26T01:22:35.673Z,7.53
2022-10-26T01:25:16.015Z,7.32
2022-10-26T01:27:48.760Z,8.13
2022-10-26T01:30:22.819Z,7.53
2022-10-26T01:33:12.049Z,7.45
2022-10-26T01:35:51.256Z,8.23
2022-10-26T01:38:29.066Z,7.65
2022-10-26T01:41:06.060Z,8.43
2022-10-26T01:43:38.798Z,7.82
2022-10-26T01:46:10.859Z,7.72
2022-10-26T01:48:41.635Z,8.48
2022-10-26T01:51:12.449Z,8.25
2022-10-26T01:53:46.764Z,8.85
2022-10-26T01:56:21.100Z,7.93
2022-10-26T01:59:14.935Z,8.02
2022-10-26T02:02:28.855Z,8.65
2022-10-26T02:05:34.057Z,7.60
2022-10-26T02:08:33.429Z,7.65
2022-10-26T02:11:13.684Z,8.93
2022-10-26T02:13:48.732Z,7.63
2022-10-26T02:16:23.936Z,8.27
2022-10-26T02:19:02.497Z,8.40
2022-10-26T02:21:38.255Z,7.90
2022-10-26T02:24:09.900Z,7.57
2022-10-26T02:26:39.410Z,7.40
2022-10-26T02:29:14.920Z,8.38
2022-10-26T02:31:45.147Z,8.10
2022-10-26T02:34:20.071Z,7.80
2022-10-26T02:36:50.921Z,7.63
2022-10-26T02:39:20.757Z,7.43
2022-10-26T02:41:50.157Z,7.93
2022-10-26T02:44:24.914Z,7.45
2022-10-26T02:46:54.169Z,7.72
2022-10-26T02:49:23.848Z,7.88
2022-10-26T02:52:02.560Z,8.30
2022-10-26T02:54:37.927Z,8.32
2022-10-26T02:57:12.665Z,7.53
2022-10-26T02:59:44.982Z,8.32
2022-10-26T03:02:14.300Z,8.23
2022-10-26T03:04:43.907Z,7.18
2022-10-26T03:07:12.184Z,7.57
2022-10-26T03:09:40.448Z,8.15
2022-10-26T03:12:08.763Z,7.63
2022-10-26T03:14:36.941Z,8.02
2022-10-26T03:17:05.200Z,7.85
2022-10-26T03:19:33.446Z,7.70
2022-10-26T03:22:03.058Z,7.97
2022-10-26T03:24:31.284Z,7.55
2022-10-26T03:27:02.060Z,7.35
2022-10-26T03:29:30.822Z,7.47
2022-10-26T03:31:59.147Z,7.53
2022-10-26T03:34:27.406Z,7.30
2022-10-26T03:36:55.649Z,7.63
2022-10-26T03:39:25.278Z,7.82
2022-10-26T03:44:26.719Z,7.20
2022-10-26T03:46:54.957Z,7.50
2022-10-26T03:49:23.221Z,7.18
2022-10-26T03:51:51.448Z,7.82
2022-10-26T03:54:19.742Z,7.75
2022-10-26T03:56:52.654Z,7.80
2022-10-26T03:59:23.329Z,7.35
2022-10-26T04:01:54.117Z,7.65
2022-10-26T04:04:26.539Z,6.90
2022-10-26T04:06:54.782Z,7.20
2022-10-26T04:09:22.977Z,8.00
2022-10-26T04:11:52.679Z,8.32
2022-10-26T04:14:20.887Z,7.72
2022-10-26T04:16:49.112Z,8.15
2022-10-26T04:19:17.386Z,8.57
2022-10-26T04:21:45.581Z,8.38
2022-10-26T04:24:14.063Z,7.75
2022-10-26T04:26:42.377Z,8.65
2022-10-26T04:29:13.740Z,8.15
2022-10-26T04:34:12.998Z,8.60
2022-10-26T04:36:41.451Z,7.47
2022-10-26T04:39:09.903Z,8.55
2022-10-26T04:41:38.264Z,8.88
2022-10-26T04:44:06.739Z,8.95
2022-10-26T04:46:36.333Z,8.55
2022-10-26T04:49:04.632Z,8.32
2022-10-26T04:51:32.815Z,8.10
2022-10-26T04:54:01.704Z,8.40
2022-10-26T04:56:30.057Z,8.45
2022-10-26T04:58:58.279Z,9.05
2022-10-26T05:01:26.657Z,8.73
2022-10-26T05:03:56.351Z,8.30
2022-10-26T05:06:24.832Z,8.10
2022-10-26T05:08:53.022Z,8.30
2022-10-26T05:11:21.326Z,7.97
2022-10-26T05:13:49.679Z,7.63
2022-10-26T05:16:17.926Z,7.70
2022-10-26T05:18:48.969Z,8.40
2022-10-26T05:21:20.263Z,8.27
2022-10-26T05:23:52.535Z,8.07
2022-10-26T05:26:20.846Z,7.93
2022-10-26T05:28:49.373Z,7.65
2022-10-26T05:31:17.615Z,7.60
2022-10-26T05:33:45.869Z,7.63
2022-10-26T05:36:14.096Z,8.38
2022-10-26T05:38:43.640Z,7.10
2022-10-26T05:41:11.959Z,6.97
2022-10-26T05:43:40.529Z,7.07
2022-10-26T05:46:08.793Z,7.40
2022-10-26T05:48:37.026Z,7.32
2022-10-26T05:51:05.631Z,7.40
2022-10-26T05:53:34.173Z,7.80
2022-10-26T05:56:06.170Z,7.57
2022-10-26T05:58:39.228Z,7.65
2022-10-26T06:01:23.405Z,7.72
2022-10-26T06:04:12.654Z,8.30
2022-10-26T06:06:46.239Z,7.40
2022-10-26T06:09:16.232Z,7.88
2022-10-26T06:11:46.808Z,7.75
2022-10-26T06:14:15.945Z,8.18
2022-10-26T06:17:03.441Z,7.43
2022-10-26T06:19:50.622Z,7.68
2022-10-26T06:22:38.170Z,6.70
2022-10-26T06:25:21.163Z,6.22
2022-10-26T06:27:59.931Z,6.72
2022-10-26T06:30:28.224Z,6.03
2022-10-26T06:33:05.952Z,6.32
2022-10-26T06:35:55.875Z,6.95
2022-10-26T06:38:26.529Z,6.30
2022-10-26T06:43:30.571Z,6.07
2022-10-26T06:46:09.701Z,6.10
2022-10-26T06:48:52.079Z,6.35
2022-10-26T06:51:21.681Z,7.20
2022-10-26T06:53:59.549Z,6.43
2022-10-26T06:56:28.415Z,6.30
2022-10-26T06:59:07.643Z,6.88
2022-10-26T07:01:36.026Z,5.97
2022-10-26T07:04:04.436Z,7.25
2022-10-26T07:06:34.431Z,6.22
2022-10-26T07:09:05.278Z,6.95
2022-10-26T07:11:33.500Z,5.28
2022-10-26T07:14:03.093Z,6.05
2022-10-26T07:16:32.078Z,6.75
2022-10-26T07:19:00.382Z,5.85
2022-10-26T07:21:29.624Z,6.95
2022-10-26T07:23:57.934Z,5.65
2022-10-26T07:26:27.378Z,5.88
2022-10-26T07:28:55.659Z,6.18
2022-10-26T07:31:26.253Z,5.47
2022-10-26T07:33:55.464Z,5.35
2022-10-26T07:36:23.855Z,5.85
2022-10-26T07:38:54.032Z,5.47
2022-10-26T07:41:22.332Z,5.82
2022-10-26T07:43:50.844Z,5.80
2022-10-26T07:46:19.265Z,4.72
2022-10-26T07:48:48.912Z,5.80
2022-10-26T07:51:17.198Z,4.93
2022-10-26T07:53:45.513Z,4.78
2022-10-26T07:56:14.183Z,4.55
2022-10-26T07:58:43.009Z,4.32
2022-10-26T08:01:13.683Z,4.90
2022-10-26T08:03:42.649Z,4.93
2022-10-26T08:06:12.490Z,5.13
2022-10-26T08:08:44.865Z,4.60
2022-10-26T08:11:16.018Z,4.20
2022-10-26T08:13:44.462Z,5.05
2022-10-26T08:16:13.511Z,3.95
2022-10-26T08:18:41.794Z,5.65
2022-10-26T08:21:15.571Z,5.35
2022-10-26T08:23:49.839Z,5.40
2022-10-26T08:26:18.560Z,5.18
2022-10-26T08:28:51.023Z,4.50
2022-10-26T08:31:19.332Z,4.85
2022-10-26T08:33:47.537Z,5.20
2022-10-26T08:36:23.236Z,4.55
2022-10-26T08:38:52.407Z,4.50
2022-10-26T08:41:28.789Z,4.72
2022-10-26T08:44:00.270Z,4.72
2022-10-26T08:46:33.646Z,4.50
2022-10-26T08:49:10.097Z,4.63
2022-10-26T08:51:42.485Z,4.50
2022-10-26T08:54:15.678Z,5.30
2022-10-26T08:56:50.082Z,4.88
2022-10-26T08:59:31.043Z,4.32
2022-10-26T09:02:01.887Z,5.05
2022-10-26T09:04:34.082Z,5.00
2022-10-26T09:07:14.024Z,4.38
2022-10-26T09:09:51.974Z,5.57
2022-10-26T09:12:29.241Z,4.85
2022-10-26T09:15:12.178Z,4.85
2022-10-26T09:17:53.674Z,5.22
2022-10-26T09:20:46.165Z,4.75
2022-10-26T09:23:32.792Z,5.50
2022-10-26T09:26:03.983Z,4.60
2022-10-26T09:28:36.980Z,4.80
2022-10-26T09:31:06.401Z,4.85
2022-10-26T09:33:40.611Z,4.55
2022-10-26T09:36:16.098Z,4.85
2022-10-26T09:38:52.659Z,5.00
2022-10-26T09:41:29.579Z,4.68
2022-10-26T09:44:05.585Z,4.38
2022-10-26T09:46:41.514Z,4.55
2022-10-26T09:49:13.845Z,4.85
2022-10-26T09:51:43.050Z,4.82
2022-10-26T09:54:17.756Z,4.78
2022-10-26T09:56:50.929Z,4.55
2022-10-26T09:59:23.882Z,4.65
2022-10-26T10:01:52.404Z,4.88
2022-10-26T10:04:24.054Z,4.90
2022-10-26T10:06:54.547Z,5.18
2022-10-26T10:09:25.320Z,4.38
2022-10-26T10:14:32.459Z,5.35
2022-10-26T10:17:04.592Z,4.55
2022-10-26T10:19:35.586Z,4.70
2022-10-26T10:22:13.157Z,4.75
2022-10-26T10:24:44.679Z,4.50
2022-10-26T10:27:19.440Z,4.75
2022-10-26T10:29:49.875Z,5.80
2022-10-26T10:32:20.727Z,5.05
2022-10-26T10:34:49.991Z,4.43
2022-10-26T10:37:28.375Z,4.80
2022-10-26T10:40:01.893Z,5.15
2022-10-26T10:42:35.217Z,4.45
2022-10-26T10:45:05.998Z,5.47
2022-10-26T10:47:37.118Z,5.88
2022-10-26T10:50:12.905Z,4.75
2022-10-26T10:52:41.375Z,4.90
2022-10-26T10:55:19.707Z,4.93
2022-10-26T10:58:09.367Z,5.03
2022-10-26T11:00:38.898Z,5.03
2022-10-26T11:04:07.663Z,5.30
2022-10-26T11:06:37.816Z,4.85
2022-10-26T11:09:10.335Z,5.25
2022-10-26T11:11:46.013Z,4.65
2022-10-26T11:14:18.404Z,4.80
2022-10-26T11:16:50.507Z,4.10
2022-10-26T11:19:23.786Z,4.35
2022-10-26T11:21:55.728Z,4.80
2022-10-26T11:24:29.828Z,4.32
2022-10-26T11:27:07.906Z,4.50
2022-10-26T11:29:48.671Z,4.30
2022-10-26T11:32:22.641Z,4.35
2022-10-26T11:34:58.004Z,4.57
2022-10-26T11:37:37.576Z,3.95
2022-10-26T11:40:24.293Z,4.28
2022-10-26T11:43:06.808Z,4.88
2022-10-26T11:45:41.032Z,4.97
2022-10-26T11:48:19.414Z,4.60
2022-10-26T11:50:52.616Z,4.40
2022-10-26T11:53:26.128Z,4.10
2022-10-26T11:55:56.134Z,4.53
2022-10-26T11:58:28.614Z,4.38
2022-10-26T12:01:03.690Z,4.35
2022-10-26T12:03:37.892Z,4.53
2022-10-26T12:06:06.639Z,4.50
2022-10-26T12:08:39.958Z,4.78
2022-10-26T12:11:18.627Z,4.18
2022-10-26T12:13:55.364Z,4.78
2022-10-26T12:16:44.099Z,4.38
2022-10-26T12:19:19.867Z,4.18
2022-10-26T12:21:50.598Z,4.30
2022-10-26T12:24:35.273Z,4.38
2022-10-26T12:27:06.320Z,4.68
2022-10-26T12:29:50.186Z,5.05
2022-10-26T12:32:52.477Z,4.78
2022-10-26T12:35:36.721Z,4.47
2022-10-26T12:38:57.293Z,4.70
2022-10-26T12:41:29.533Z,4.53
2022-10-26T12:43:59.366Z,4.70
2022-10-26T12:46:45.437Z,4.07
2022-10-26T12:50:04.240Z,4.05
2022-10-26T12:52:43.963Z,4.45
2022-10-26T12:55:56.318Z,4.30
2022-10-26T12:59:21.929Z,3.80
2022-10-26T13:02:27.238Z,4.63
2022-10-26T13:05:41.662Z,4.55
2022-10-26T13:08:13.027Z,4.13
2022-10-26T13:11:01.515Z,4.35
2022-10-26T13:13:32.675Z,4.00
2022-10-26T13:16:03.994Z,4.15
2022-10-26T13:18:43.725Z,3.92
2022-10-26T13:21:15.069Z,4.43
2022-10-26T13:23:46.779Z,3.83
2022-10-26T13:26:18.294Z,3.92
2022-10-26T13:28:51.090Z,3.97
2022-10-26T13:31:59.134Z,3.90
2022-10-26T13:34:32.033Z,3.75
2022-10-26T13:37:16.628Z,4.10
2022-10-26T13:39:49.118Z,4.30
2022-10-26T13:42:21.274Z,3.90
2022-10-26T13:44:55.076Z,4.57
2022-10-26T13:47:30.251Z,4.38
2022-10-26T13:50:05.799Z,3.75
2022-10-26T13:52:37.724Z,4.03
2022-10-26T13:55:14.290Z,4.28
2022-10-26T13:57:46.378Z,3.60
2022-10-26T14:00:20.952Z,4.03
2022-10-26T14:02:49.771Z,4.20
2022-10-26T14:05:20.656Z,4.25
2022-10-26T14:10:29.076Z,4.20
2022-10-26T14:12:57.421Z,4.25
2022-10-26T14:15:28.627Z,4.38
2022-10-26T14:17:57.862Z,3.70
2022-10-26T14:20:29.300Z,3.50
2022-10-26T14:22:57.819Z,3.65
2022-10-26T14:25:41.718Z,4.50
2022-10-26T14:28:24.349Z,3.88
2022-10-26T14:30:52.736Z,4.10
2022-10-26T14:33:25.231Z,3.97
2022-10-26T14:35:55.705Z,4.25
2022-10-26T14:38:27.508Z,4.60
2022-10-26T14:40:57.561Z,4.50
2022-10-26T14:43:28.021Z,3.92
2022-10-26T14:45:57.296Z,4.50
2022-10-26T14:48:30.045Z,4.38
2022-10-26T14:51:12.295Z,4.10
2022-10-26T14:53:42.199Z,4.18
2022-10-26T14:56:23.995Z,4.18
2022-10-26T14:58:53.152Z,4.05
2022-10-26T15:01:35.767Z,4.65
2022-10-26T15:04:07.053Z,3.75
2022-10-26T15:06:47.511Z,4.30
2022-10-26T15:09:39.017Z,4.15
2022-10-26T15:12:09.523Z,3.40
2022-10-26T15:14:38.007Z,4.40
2022-10-26T15:17:06.329Z,3.72
2022-10-26T15:19:35.345Z,3.95
2022-10-26T15:22:05.007Z,3.97
2022-10-26T15:24:38.796Z,3.50
2022-10-26T15:27:16.254Z,3.88
2022-10-26T15:29:47.012Z,3.92
2022-10-26T15:32:28.599Z,4.10
2022-10-26T15:35:25.063Z,3.97
2022-10-26T15:37:56.865Z,3.63
2022-10-26T15:40:26.935Z,3.80
2022-10-26T15:42:56.459Z,4.22
2022-10-26T15:45:27.064Z,4.30
2022-10-26T15:50:29.089Z,4.28
2022-10-26T15:53:17.673Z,3.10
2022-10-26T15:55:46.072Z,3.80
2022-10-26T15:58:14.731Z,3.45
2022-10-26T16:00:43.039Z,3.03
2022-10-26T16:03:15.659Z,3.55
2022-10-26T16:05:44.075Z,3.75
2022-10-26T16:08:18.045Z,3.72
2022-10-26T16:10:48.128Z,3.70
2022-10-26T16:13:17.006Z,3.80
2022-10-26T16:15:45.699Z,4.28
2022-10-26T16:18:14.410Z,3.67
2022-10-26T16:20:46.546Z,3.88
2022-10-26T16:23:16.421Z,4.28
2022-10-26T16:25:46.936Z,3.90
2022-10-26T16:28:18.057Z,4.10
2022-10-26T16:30:46.374Z,4.40
2022-10-26T16:33:14.786Z,4.78
2022-10-26T16:35:43.096Z,4.57
2022-10-26T16:38:11.341Z,4.63
2022-10-26T16:40:43.204Z,4.22
2022-10-26T16:43:11.698Z,4.20
2022-10-26T16:45:42.025Z,4.75
2022-10-26T16:48:14.868Z,4.45
2022-10-26T16:50:43.250Z,4.43
2022-10-26T16:53:11.437Z,3.97
2022-10-26T16:58:09.531Z,4.27
2022-10-26T17:00:38.549Z,4.53
2022-10-26T17:03:06.872Z,4.22
2022-10-26T17:05:35.094Z,4.40
2022-10-26T17:08:03.389Z,4.72
2022-10-26T17:10:31.751Z,4.18
2022-10-26T17:13:01.342Z,4.53
2022-10-26T17:15:29.595Z,4.38
2022-10-26T17:17:58.118Z,3.63
2022-10-26T17:20:26.428Z,5.03
2022-10-26T17:22:54.692Z,4.38
2022-10-26T17:25:22.965Z,5.13
2022-10-26T17:27:51.221Z,4.40
2022-10-26T17:30:20.962Z,4.30
2022-10-26T17:32:49.581Z,4.77
2022-10-26T17:35:18.951Z,4.68
2022-10-26T17:37:47.563Z,4.28
2022-10-26T17:40:16.054Z,4.65
2022-10-26T17:42:44.351Z,4.65
2022-10-26T17:45:13.130Z,4.40
2022-10-26T17:47:42.807Z,4.35
2022-10-26T17:50:11.427Z,4.20
2022-10-26T17:52:39.737Z,4.85
2022-10-26T17:55:08.826Z,4.78
2022-10-26T17:57:37.210Z,4.47
2022-10-26T18:00:06.794Z,4.70
2022-10-26T18:02:42.293Z,4.50
2022-10-26T18:05:11.773Z,4.20
2022-10-26T18:07:40.045Z,3.90
2022-10-26T18:10:32.865Z,3.97
2022-10-26T18:12:57.620Z,4.55
2022-10-26T18:15:26.030Z,4.40
2022-10-26T18:17:58.394Z,4.22
2022-10-26T18:20:28.223Z,3.75
2022-10-26T18:22:57.778Z,4.40
2022-10-26T18:25:26.372Z,4.32
2022-10-26T18:27:54.953Z,4.00
2022-10-26T18:30:23.674Z,3.80
2022-10-26T18:32:53.377Z,3.88
2022-10-26T18:35:24.257Z,4.30
2022-10-26T18:37:52.969Z,4.18
2022-10-26T18:40:21.550Z,3.70
2022-10-26T18:42:49.914Z,4.55
2022-10-26T18:45:18.338Z,3.97
2022-10-26T18:47:46.691Z,4.00
2022-10-26T18:50:15.135Z,4.35
2022-10-26T18:52:44.767Z,3.85
2022-10-26T18:55:13.023Z,3.92
2022-10-26T18:57:41.471Z,3.70
2022-10-26T19:00:11.580Z,4.05
2022-10-26T19:02:39.963Z,3.88
2022-10-26T19:05:09.431Z,4.05
2022-10-26T19:07:39.146Z,4.55
2022-10-26T19:10:10.764Z,5.60
2022-10-26T19:12:39.086Z,5.22
2022-10-26T19:15:08.691Z,4.35
2022-10-26T19:17:36.985Z,4.55
2022-10-26T19:20:06.809Z,4.75
2022-10-26T19:22:35.028Z,4.03
2022-10-26T19:25:03.929Z,4.70
2022-10-26T19:27:33.540Z,4.00
2022-10-26T19:30:01.883Z,4.25
2022-10-26T19:32:30.366Z,4.57
2022-10-26T19:34:58.649Z,4.55
2022-10-26T19:37:28.467Z,4.70
2022-10-26T19:39:57.146Z,4.25
2022-10-26T19:42:25.404Z,4.32
2022-10-26T19:44:55.095Z,4.40
2022-10-26T19:47:23.964Z,5.20
2022-10-26T19:49:52.285Z,5.35
2022-10-26T19:52:20.591Z,4.72
2022-10-26T19:54:48.819Z,4.65
2022-10-26T19:57:17.128Z,4.50
2022-10-26T19:59:45.298Z,4.95
2022-10-26T20:02:15.105Z,4.63
2022-10-26T20:04:43.367Z,6.00
2022-10-26T20:07:11.813Z,4.93
2022-10-26T20:09:40.033Z,5.13
2022-10-26T20:12:12.538Z,5.10
2022-10-26T20:14:40.931Z,5.20
2022-10-26T20:17:09.222Z,5.57
2022-10-26T20:19:39.008Z,6.40
2022-10-26T20:22:07.322Z,6.53
2022-10-26T20:24:35.573Z,6.68
2022-10-26T20:27:03.859Z,6.07
2022-10-26T20:29:32.110Z,5.72
2022-10-26T20:32:00.379Z,6.15
2022-10-26T20:37:03.318Z,6.45
2022-10-26T20:39:32.332Z,6.03
2022-10-26T20:42:01.364Z,5.93
2022-10-26T20:44:34.447Z,5.10
2022-10-26T20:47:03.351Z,6.32
2022-10-26T20:49:32.389Z,5.75
2022-10-26T20:52:20.682Z,5.65
2022-10-26T20:54:56.704Z,5.32
2022-10-26T20:57:32.003Z,5.10
2022-10-26T21:00:05.502Z,5.30
2022-10-26T21:02:33.788Z,5.35
2022-10-26T21:05:02.052Z,5.47
2022-10-26T21:07:31.666Z,5.53
2022-10-26T21:09:59.944Z,5.22
2022-10-26T21:12:28.180Z,5.05
2022-10-26T21:14:56.425Z,4.82
2022-10-26T21:17:24.996Z,4.55
2022-10-26T21:19:53.146Z,4.65
2022-10-26T21:22:21.446Z,4.85
2022-10-26T21:24:51.126Z,5.05
2022-10-26T21:27:19.491Z,4.73
2022-10-26T21:29:47.796Z,4.47
2022-10-26T21:32:16.058Z,4.80
2022-10-26T21:34:44.244Z,4.72
2022-10-26T21:37:12.486Z,4.93
2022-10-26T21:39:40.876Z,4.68
2022-10-26T21:42:10.531Z,4.80
2022-10-26T21:44:41.244Z,4.63
2022-10-26T21:47:10.676Z,4.07
2022-10-26T21:49:38.980Z,4.80
2022-10-26T21:52:08.440Z,5.18
2022-10-26T21:54:36.684Z,4.20
2022-10-26T21:57:05.088Z,4.53
2022-10-26T21:59:34.662Z,4.85
2022-10-26T22:02:03.095Z,5.10
2022-10-26T22:04:31.534Z,4.20
2022-10-26T22:06:59.775Z,4.25
2022-10-26T22:09:28.033Z,5.22
2022-10-26T22:11:56.372Z,4.53
2022-10-26T22:14:24.716Z,5.15
2022-10-26T22:16:54.340Z,4.90
2022-10-26T22:19:22.742Z,4.85
2022-10-26T22:21:50.979Z,5.13
2022-10-26T22:24:19.180Z,4.68
2022-10-26T22:26:47.515Z,4.43
2022-10-26T22:29:15.742Z,5.07
2022-10-26T22:31:44.007Z,5.00
2022-10-26T22:34:17.498Z,5.25
2022-10-26T22:36:45.789Z,5.25
2022-10-26T22:39:14.284Z,4.82
2022-10-26T22:41:42.534Z,5.35
2022-10-26T22:44:10.889Z,5.63
2022-10-26T22:46:39.281Z,5.20
2022-10-26T22:49:07.562Z,4.85
2022-10-26T22:51:37.227Z,5.38
2022-10-26T22:54:06.672Z,5.45
2022-10-26T22:56:37.128Z,5.13
2022-10-26T22:59:06.289Z,5.65
2022-10-26T23:01:39.388Z,5.13
2022-10-26T23:04:07.758Z,4.45
2022-10-26T23:06:37.316Z,4.00
2022-10-26T23:09:06.394Z,3.85
2022-10-26T23:11:34.876Z,4.18
2022-10-26T23:14:04.699Z,4.35
2022-10-26T23:16:33.785Z,4.55
2022-10-26T23:19:02.053Z,4.32
2022-10-26T23:21:30.499Z,4.63
2022-10-26T23:24:00.088Z,4.85
2022-10-26T23:26:28.472Z,5.30
2022-10-26T23:28:56.962Z,5.22
2022-10-26T23:31:27.521Z,5.00
2022-10-26T23:33:57.637Z,5.15
2022-10-26T23:36:26.604Z,5.43
2022-10-26T23:38:54.884Z,5.38
2022-10-26T23:41:24.479Z,5.45
2022-10-26T23:43:52.691Z,5.72
2022-10-26T23:46:20.915Z,5.70
2022-10-26T23:48:49.137Z,5.68
2022-10-26T23:51:17.362Z,5.90
2022-10-26T23:53:45.602Z,6.00
2022-10-26T23:56:13.798Z,5.20
2022-10-26T23:58:43.404Z,5.43
